<?xml version="1.0" encoding="UTF-8" standalone="no" ?>
<gpx xmlns="http://www.topografix.com/GPX/1/1" xmlns:xsi="http://www.w3.org/2001/XMLSchema-instance" xsi:schemaLocation="http://www.topografix.com/GPX/1/1 http://www.topografix.com/GPX/1/1/gpx.xsd" version="1.1" creator="VisuGPX - https://www.visugpx.com">
  <metadata>
    <name>2022-02-18 belvédère d'Aujour</name>
  </metadata>
  <trk>
    <name><![CDATA[2022-02-18 belvédère d'Aujour]]></name>
    <extensions>
      <line xmlns="http://www.topografix.com/GPX/gpx_style/0/2">
        <color>0000FF</color>
        <opacity>0.59</opacity>
        <width>6.0</width>
      </line>
    </extensions>
    <trkseg>
      <trkpt lat="45.99191" lon="6.6799">
        <ele>1946.1</ele>
        <time>2022-02-18T09:53:55.000Z</time>
      </trkpt>
      <trkpt lat="45.99193" lon="6.67987">
        <ele>1946</ele>
        <time>2022-02-18T09:54:04.617Z</time>
      </trkpt>
      <trkpt lat="45.99187" lon="6.67988">
        <ele>1947.5</ele>
        <time>2022-02-18T09:54:14.000Z</time>
      </trkpt>
      <trkpt lat="45.9918" lon="6.67989">
        <ele>1949.5</ele>
        <time>2022-02-18T09:54:23.356Z</time>
      </trkpt>
      <trkpt lat="45.99177" lon="6.67978">
        <ele>1951</ele>
        <time>2022-02-18T09:54:32.478Z</time>
      </trkpt>
      <trkpt lat="45.99176" lon="6.67975">
        <ele>1951.4</ele>
        <time>2022-02-18T09:54:41.498Z</time>
      </trkpt>
      <trkpt lat="45.99175" lon="6.67971">
        <ele>1951.8</ele>
        <time>2022-02-18T09:54:50.641Z</time>
      </trkpt>
      <trkpt lat="45.99171" lon="6.67962">
        <ele>1952.7</ele>
        <time>2022-02-18T09:55:00.000Z</time>
      </trkpt>
      <trkpt lat="45.99165" lon="6.67954">
        <ele>1953.7</ele>
        <time>2022-02-18T09:55:09.441Z</time>
      </trkpt>
      <trkpt lat="45.99157" lon="6.67947">
        <ele>1954.8</ele>
        <time>2022-02-18T09:55:19.000Z</time>
      </trkpt>
      <trkpt lat="45.99148" lon="6.6794">
        <ele>1956.3</ele>
        <time>2022-02-18T09:55:29.000Z</time>
      </trkpt>
      <trkpt lat="45.99146" lon="6.6793">
        <ele>1956.7</ele>
        <time>2022-02-18T09:55:38.596Z</time>
      </trkpt>
      <trkpt lat="45.99141" lon="6.67916">
        <ele>1957.6</ele>
        <time>2022-02-18T09:55:48.342Z</time>
      </trkpt>
      <trkpt lat="45.99133" lon="6.67911">
        <ele>1958.3</ele>
        <time>2022-02-18T09:55:58.000Z</time>
      </trkpt>
      <trkpt lat="45.99139" lon="6.67901">
        <ele>1957.4</ele>
        <time>2022-02-18T09:56:08.000Z</time>
      </trkpt>
      <trkpt lat="45.99137" lon="6.67884">
        <ele>1957.1</ele>
        <time>2022-02-18T09:56:17.316Z</time>
      </trkpt>
      <trkpt lat="45.99132" lon="6.67873">
        <ele>1957.4</ele>
        <time>2022-02-18T09:56:27.000Z</time>
      </trkpt>
      <trkpt lat="45.99127" lon="6.67861">
        <ele>1958.2</ele>
        <time>2022-02-18T09:56:36.819Z</time>
      </trkpt>
      <trkpt lat="45.9912" lon="6.67852">
        <ele>1959.5</ele>
        <time>2022-02-18T09:56:46.000Z</time>
      </trkpt>
      <trkpt lat="45.99115" lon="6.67846">
        <ele>1960.7</ele>
        <time>2022-02-18T09:56:55.597Z</time>
      </trkpt>
      <trkpt lat="45.99107" lon="6.67845">
        <ele>1962.7</ele>
        <time>2022-02-18T09:57:05.238Z</time>
      </trkpt>
      <trkpt lat="45.99102" lon="6.67841">
        <ele>1964.4</ele>
        <time>2022-02-18T09:57:14.438Z</time>
      </trkpt>
      <trkpt lat="45.99097" lon="6.67832">
        <ele>1966</ele>
        <time>2022-02-18T09:57:24.000Z</time>
      </trkpt>
      <trkpt lat="45.99097" lon="6.67821">
        <ele>1967.3</ele>
        <time>2022-02-18T09:57:33.539Z</time>
      </trkpt>
      <trkpt lat="45.991" lon="6.6781">
        <ele>1966.9</ele>
        <time>2022-02-18T09:57:42.702Z</time>
      </trkpt>
      <trkpt lat="45.99106" lon="6.67799">
        <ele>1966.3</ele>
        <time>2022-02-18T09:57:52.217Z</time>
      </trkpt>
      <trkpt lat="45.99112" lon="6.67785">
        <ele>1965.6</ele>
        <time>2022-02-18T09:58:02.000Z</time>
      </trkpt>
      <trkpt lat="45.9912" lon="6.67769">
        <ele>1964.4</ele>
        <time>2022-02-18T09:58:11.461Z</time>
      </trkpt>
      <trkpt lat="45.99127" lon="6.67757">
        <ele>1963.4</ele>
        <time>2022-02-18T09:58:20.602Z</time>
      </trkpt>
      <trkpt lat="45.9913" lon="6.67742">
        <ele>1963</ele>
        <time>2022-02-18T09:58:29.642Z</time>
      </trkpt>
      <trkpt lat="45.99134" lon="6.6773">
        <ele>1962</ele>
        <time>2022-02-18T09:58:38.761Z</time>
      </trkpt>
      <trkpt lat="45.99143" lon="6.67696">
        <ele>1960</ele>
        <time>2022-02-18T09:58:49.000Z</time>
      </trkpt>
      <trkpt lat="45.9915" lon="6.67683">
        <ele>1959.1</ele>
        <time>2022-02-18T09:58:58.157Z</time>
      </trkpt>
      <trkpt lat="45.9916" lon="6.67673">
        <ele>1956.9</ele>
        <time>2022-02-18T09:59:07.421Z</time>
      </trkpt>
      <trkpt lat="45.99157" lon="6.67663">
        <ele>1958.6</ele>
        <time>2022-02-18T09:59:17.000Z</time>
      </trkpt>
      <trkpt lat="45.99155" lon="6.67655">
        <ele>1960.3</ele>
        <time>2022-02-18T09:59:26.277Z</time>
      </trkpt>
      <trkpt lat="45.99154" lon="6.67647">
        <ele>1961.8</ele>
        <time>2022-02-18T09:59:35.379Z</time>
      </trkpt>
      <trkpt lat="45.99154" lon="6.67637">
        <ele>1963.5</ele>
        <time>2022-02-18T09:59:45.000Z</time>
      </trkpt>
      <trkpt lat="45.99156" lon="6.67626">
        <ele>1965.5</ele>
        <time>2022-02-18T09:59:55.000Z</time>
      </trkpt>
      <trkpt lat="45.99163" lon="6.6762">
        <ele>1964.5</ele>
        <time>2022-02-18T10:00:05.000Z</time>
      </trkpt>
      <trkpt lat="45.99168" lon="6.67614">
        <ele>1964.5</ele>
        <time>2022-02-18T10:00:14.396Z</time>
      </trkpt>
      <trkpt lat="45.99169" lon="6.6761">
        <ele>1965.1</ele>
        <time>2022-02-18T10:00:24.262Z</time>
      </trkpt>
      <trkpt lat="45.9917" lon="6.67603">
        <ele>1966.3</ele>
        <time>2022-02-18T10:00:33.475Z</time>
      </trkpt>
      <trkpt lat="45.99169" lon="6.67602">
        <ele>1966.8</ele>
        <time>2022-02-18T10:01:15.000Z</time>
      </trkpt>
      <trkpt lat="45.99173" lon="6.67589">
        <ele>1968.3</ele>
        <time>2022-02-18T10:01:24.719Z</time>
      </trkpt>
      <trkpt lat="45.99176" lon="6.67574">
        <ele>1970</ele>
        <time>2022-02-18T10:01:34.639Z</time>
      </trkpt>
      <trkpt lat="45.99177" lon="6.67564">
        <ele>1971</ele>
        <time>2022-02-18T10:01:44.000Z</time>
      </trkpt>
      <trkpt lat="45.99176" lon="6.67553">
        <ele>1973</ele>
        <time>2022-02-18T10:01:54.000Z</time>
      </trkpt>
      <trkpt lat="45.99175" lon="6.67541">
        <ele>1973.8</ele>
        <time>2022-02-18T10:02:04.000Z</time>
      </trkpt>
      <trkpt lat="45.99176" lon="6.67542">
        <ele>1973.5</ele>
        <time>2022-02-18T10:02:15.000Z</time>
      </trkpt>
      <trkpt lat="45.99176" lon="6.6754">
        <ele>1973.7</ele>
        <time>2022-02-18T10:02:26.000Z</time>
      </trkpt>
      <trkpt lat="45.99172" lon="6.67523">
        <ele>1975.4</ele>
        <time>2022-02-18T10:02:35.218Z</time>
      </trkpt>
      <trkpt lat="45.99168" lon="6.67512">
        <ele>1976.6</ele>
        <time>2022-02-18T10:02:44.599Z</time>
      </trkpt>
      <trkpt lat="45.99163" lon="6.67504">
        <ele>1978.4</ele>
        <time>2022-02-18T10:02:54.000Z</time>
      </trkpt>
      <trkpt lat="45.99158" lon="6.67497">
        <ele>1980.5</ele>
        <time>2022-02-18T10:03:03.661Z</time>
      </trkpt>
      <trkpt lat="45.99153" lon="6.6749">
        <ele>1982.5</ele>
        <time>2022-02-18T10:03:13.000Z</time>
      </trkpt>
      <trkpt lat="45.99149" lon="6.67486">
        <ele>1984</ele>
        <time>2022-02-18T10:03:22.658Z</time>
      </trkpt>
      <trkpt lat="45.99142" lon="6.6748">
        <ele>1986.2</ele>
        <time>2022-02-18T10:03:32.381Z</time>
      </trkpt>
      <trkpt lat="45.99139" lon="6.67472">
        <ele>1987</ele>
        <time>2022-02-18T10:03:42.000Z</time>
      </trkpt>
      <trkpt lat="45.99137" lon="6.67464">
        <ele>1987.8</ele>
        <time>2022-02-18T10:03:51.261Z</time>
      </trkpt>
      <trkpt lat="45.99135" lon="6.67455">
        <ele>1988.5</ele>
        <time>2022-02-18T10:04:00.662Z</time>
      </trkpt>
      <trkpt lat="45.99133" lon="6.67446">
        <ele>1988.8</ele>
        <time>2022-02-18T10:04:10.560Z</time>
      </trkpt>
      <trkpt lat="45.99132" lon="6.67434">
        <ele>1989.1</ele>
        <time>2022-02-18T10:04:20.298Z</time>
      </trkpt>
      <trkpt lat="45.99132" lon="6.67422">
        <ele>1989.5</ele>
        <time>2022-02-18T10:04:30.000Z</time>
      </trkpt>
      <trkpt lat="45.99132" lon="6.67421">
        <ele>1989.4</ele>
        <time>2022-02-18T10:04:40.000Z</time>
      </trkpt>
      <trkpt lat="45.99134" lon="6.67414">
        <ele>1989.4</ele>
        <time>2022-02-18T10:04:50.000Z</time>
      </trkpt>
      <trkpt lat="45.99133" lon="6.67416">
        <ele>1989.3</ele>
        <time>2022-02-18T10:05:53.040Z</time>
      </trkpt>
      <trkpt lat="45.99139" lon="6.67406">
        <ele>1988.7</ele>
        <time>2022-02-18T10:06:02.495Z</time>
      </trkpt>
      <trkpt lat="45.99142" lon="6.67389">
        <ele>1988.7</ele>
        <time>2022-02-18T10:06:12.000Z</time>
      </trkpt>
      <trkpt lat="45.99148" lon="6.67373">
        <ele>1989.9</ele>
        <time>2022-02-18T10:06:22.000Z</time>
      </trkpt>
      <trkpt lat="45.99147" lon="6.67367">
        <ele>1991.4</ele>
        <time>2022-02-18T10:06:31.696Z</time>
      </trkpt>
      <trkpt lat="45.99146" lon="6.67361">
        <ele>1993.1</ele>
        <time>2022-02-18T10:06:41.541Z</time>
      </trkpt>
      <trkpt lat="45.99145" lon="6.67351">
        <ele>1994.9</ele>
        <time>2022-02-18T10:06:51.000Z</time>
      </trkpt>
      <trkpt lat="45.99143" lon="6.67343">
        <ele>1996.4</ele>
        <time>2022-02-18T10:07:01.000Z</time>
      </trkpt>
      <trkpt lat="45.99142" lon="6.67336">
        <ele>1997.7</ele>
        <time>2022-02-18T10:07:11.000Z</time>
      </trkpt>
      <trkpt lat="45.99138" lon="6.67328">
        <ele>1999.5</ele>
        <time>2022-02-18T10:07:20.679Z</time>
      </trkpt>
      <trkpt lat="45.99135" lon="6.67322">
        <ele>2000.9</ele>
        <time>2022-02-18T10:07:29.759Z</time>
      </trkpt>
      <trkpt lat="45.99133" lon="6.67316">
        <ele>2001.9</ele>
        <time>2022-02-18T10:07:39.000Z</time>
      </trkpt>
      <trkpt lat="45.99131" lon="6.67305">
        <ele>2003</ele>
        <time>2022-02-18T10:07:49.000Z</time>
      </trkpt>
      <trkpt lat="45.99131" lon="6.67295">
        <ele>2004.1</ele>
        <time>2022-02-18T10:07:58.285Z</time>
      </trkpt>
      <trkpt lat="45.9913" lon="6.67285">
        <ele>2005.3</ele>
        <time>2022-02-18T10:08:08.000Z</time>
      </trkpt>
      <trkpt lat="45.99125" lon="6.6728">
        <ele>2006.8</ele>
        <time>2022-02-18T10:08:18.000Z</time>
      </trkpt>
      <trkpt lat="45.99119" lon="6.67288">
        <ele>2007.5</ele>
        <time>2022-02-18T10:08:28.000Z</time>
      </trkpt>
      <trkpt lat="45.99113" lon="6.67298">
        <ele>2008.1</ele>
        <time>2022-02-18T10:08:37.259Z</time>
      </trkpt>
      <trkpt lat="45.99106" lon="6.67297">
        <ele>2009.9</ele>
        <time>2022-02-18T10:08:46.378Z</time>
      </trkpt>
      <trkpt lat="45.99101" lon="6.67288">
        <ele>2012</ele>
        <time>2022-02-18T10:08:56.000Z</time>
      </trkpt>
      <trkpt lat="45.991" lon="6.6728">
        <ele>2013</ele>
        <time>2022-02-18T10:09:06.000Z</time>
      </trkpt>
      <trkpt lat="45.99102" lon="6.67268">
        <ele>2013.7</ele>
        <time>2022-02-18T10:09:16.000Z</time>
      </trkpt>
      <trkpt lat="45.991" lon="6.67258">
        <ele>2015.3</ele>
        <time>2022-02-18T10:09:26.000Z</time>
      </trkpt>
      <trkpt lat="45.99098" lon="6.67248">
        <ele>2017</ele>
        <time>2022-02-18T10:09:36.178Z</time>
      </trkpt>
      <trkpt lat="45.99094" lon="6.67245">
        <ele>2018.6</ele>
        <time>2022-02-18T10:09:46.101Z</time>
      </trkpt>
      <trkpt lat="45.99086" lon="6.67247">
        <ele>2020.6</ele>
        <time>2022-02-18T10:09:55.401Z</time>
      </trkpt>
      <trkpt lat="45.99084" lon="6.67243">
        <ele>2021.8</ele>
        <time>2022-02-18T10:10:04.497Z</time>
      </trkpt>
      <trkpt lat="45.99082" lon="6.67232">
        <ele>2023.2</ele>
        <time>2022-02-18T10:10:14.000Z</time>
      </trkpt>
      <trkpt lat="45.99082" lon="6.67219">
        <ele>2024.4</ele>
        <time>2022-02-18T10:10:23.581Z</time>
      </trkpt>
      <trkpt lat="45.99082" lon="6.67207">
        <ele>2025.3</ele>
        <time>2022-02-18T10:10:33.000Z</time>
      </trkpt>
      <trkpt lat="45.99081" lon="6.67197">
        <ele>2026.1</ele>
        <time>2022-02-18T10:10:42.318Z</time>
      </trkpt>
      <trkpt lat="45.99082" lon="6.67187">
        <ele>2027.1</ele>
        <time>2022-02-18T10:10:52.000Z</time>
      </trkpt>
      <trkpt lat="45.99082" lon="6.67174">
        <ele>2028.4</ele>
        <time>2022-02-18T10:11:01.560Z</time>
      </trkpt>
      <trkpt lat="45.99083" lon="6.67162">
        <ele>2029.2</ele>
        <time>2022-02-18T10:11:11.000Z</time>
      </trkpt>
      <trkpt lat="45.99087" lon="6.67149">
        <ele>2028.8</ele>
        <time>2022-02-18T10:11:21.000Z</time>
      </trkpt>
      <trkpt lat="45.99089" lon="6.67137">
        <ele>2029.3</ele>
        <time>2022-02-18T10:11:30.596Z</time>
      </trkpt>
      <trkpt lat="45.99093" lon="6.67127">
        <ele>2029.8</ele>
        <time>2022-02-18T10:11:40.000Z</time>
      </trkpt>
      <trkpt lat="45.99097" lon="6.67114">
        <ele>2030.6</ele>
        <time>2022-02-18T10:11:50.000Z</time>
      </trkpt>
      <trkpt lat="45.99102" lon="6.67101">
        <ele>2030.8</ele>
        <time>2022-02-18T10:11:59.380Z</time>
      </trkpt>
      <trkpt lat="45.99106" lon="6.6709">
        <ele>2030.8</ele>
        <time>2022-02-18T10:12:08.399Z</time>
      </trkpt>
      <trkpt lat="45.9911" lon="6.67075">
        <ele>2030.7</ele>
        <time>2022-02-18T10:12:17.579Z</time>
      </trkpt>
      <trkpt lat="45.99109" lon="6.67065">
        <ele>2031.1</ele>
        <time>2022-02-18T10:12:27.518Z</time>
      </trkpt>
      <trkpt lat="45.99102" lon="6.67058">
        <ele>2032.3</ele>
        <time>2022-02-18T10:12:37.359Z</time>
      </trkpt>
      <trkpt lat="45.99101" lon="6.6705">
        <ele>2028</ele>
        <time>2022-02-18T10:12:47.000Z</time>
      </trkpt>
      <trkpt lat="45.99101" lon="6.67042">
        <ele>2022.1</ele>
        <time>2022-02-18T10:12:57.000Z</time>
      </trkpt>
      <trkpt lat="45.99101" lon="6.67044">
        <ele>2023.1</ele>
        <time>2022-02-18T10:13:08.376Z</time>
      </trkpt>
      <trkpt lat="45.99102" lon="6.67044">
        <ele>2023.6</ele>
        <time>2022-02-18T10:13:26.000Z</time>
      </trkpt>
      <trkpt lat="45.99106" lon="6.67046">
        <ele>2024.8</ele>
        <time>2022-02-18T10:13:36.000Z</time>
      </trkpt>
      <trkpt lat="45.99105" lon="6.67045">
        <ele>2024.2</ele>
        <time>2022-02-18T10:13:46.000Z</time>
      </trkpt>
      <trkpt lat="45.99103" lon="6.6704">
        <ele>2020.2</ele>
        <time>2022-02-18T10:13:56.000Z</time>
      </trkpt>
      <trkpt lat="45.99103" lon="6.67039">
        <ele>2019.6</ele>
        <time>2022-02-18T10:14:08.000Z</time>
      </trkpt>
      <trkpt lat="45.99102" lon="6.6704">
        <ele>2020.2</ele>
        <time>2022-02-18T10:15:11.339Z</time>
      </trkpt>
      <trkpt lat="45.99099" lon="6.67045">
        <ele>2024.1</ele>
        <time>2022-02-18T10:15:21.000Z</time>
      </trkpt>
      <trkpt lat="45.991" lon="6.67044">
        <ele>2023.4</ele>
        <time>2022-02-18T10:15:31.000Z</time>
      </trkpt>
      <trkpt lat="45.99099" lon="6.67044">
        <ele>2023.2</ele>
        <time>2022-02-18T10:16:02.000Z</time>
      </trkpt>
      <trkpt lat="45.99092" lon="6.67049">
        <ele>2027.8</ele>
        <time>2022-02-18T10:16:11.617Z</time>
      </trkpt>
      <trkpt lat="45.9909" lon="6.67047">
        <ele>2025.3</ele>
        <time>2022-02-18T10:16:21.000Z</time>
      </trkpt>
      <trkpt lat="45.99089" lon="6.67043">
        <ele>2022.3</ele>
        <time>2022-02-18T10:16:30.259Z</time>
      </trkpt>
      <trkpt lat="45.99083" lon="6.67049">
        <ele>2027.4</ele>
        <time>2022-02-18T10:16:39.460Z</time>
      </trkpt>
      <trkpt lat="45.99076" lon="6.6705">
        <ele>2027</ele>
        <time>2022-02-18T10:16:49.000Z</time>
      </trkpt>
      <trkpt lat="45.99074" lon="6.67043">
        <ele>2018</ele>
        <time>2022-02-18T10:16:59.000Z</time>
      </trkpt>
      <trkpt lat="45.99074" lon="6.67044">
        <ele>2019.8</ele>
        <time>2022-02-18T10:17:09.000Z</time>
      </trkpt>
      <trkpt lat="45.99075" lon="6.67046">
        <ele>2022</ele>
        <time>2022-02-18T10:18:24.695Z</time>
      </trkpt>
      <trkpt lat="45.99076" lon="6.67049">
        <ele>2026</ele>
        <time>2022-02-18T10:18:35.000Z</time>
      </trkpt>
      <trkpt lat="45.99093" lon="6.6706">
        <ele>2033.9</ele>
        <time>2022-02-18T10:18:45.000Z</time>
      </trkpt>
      <trkpt lat="45.99107" lon="6.67068">
        <ele>2031.3</ele>
        <time>2022-02-18T10:18:55.000Z</time>
      </trkpt>
      <trkpt lat="45.99089" lon="6.67052">
        <ele>2030.7</ele>
        <time>2022-02-18T10:19:05.000Z</time>
      </trkpt>
      <trkpt lat="45.99088" lon="6.67051">
        <ele>2030.1</ele>
        <time>2022-02-18T10:19:15.000Z</time>
      </trkpt>
      <trkpt lat="45.99086" lon="6.6705">
        <ele>2029.3</ele>
        <time>2022-02-18T10:19:43.000Z</time>
      </trkpt>
      <trkpt lat="45.99079" lon="6.67047">
        <ele>2024.9</ele>
        <time>2022-02-18T10:19:53.000Z</time>
      </trkpt>
      <trkpt lat="45.99078" lon="6.6705">
        <ele>2028.2</ele>
        <time>2022-02-18T10:21:05.000Z</time>
      </trkpt>
      <trkpt lat="45.99076" lon="6.67061">
        <ele>2035.3</ele>
        <time>2022-02-18T10:21:15.000Z</time>
      </trkpt>
      <trkpt lat="45.99075" lon="6.67056">
        <ele>2034.2</ele>
        <time>2022-02-18T10:21:53.000Z</time>
      </trkpt>
      <trkpt lat="45.99073" lon="6.67049">
        <ele>2025.7</ele>
        <time>2022-02-18T10:22:03.000Z</time>
      </trkpt>
      <trkpt lat="45.99074" lon="6.67048">
        <ele>2024.9</ele>
        <time>2022-02-18T10:23:16.000Z</time>
      </trkpt>
      <trkpt lat="45.99075" lon="6.6705">
        <ele>2027.2</ele>
        <time>2022-02-18T10:23:26.000Z</time>
      </trkpt>
      <trkpt lat="45.99075" lon="6.67048">
        <ele>2025.2</ele>
        <time>2022-02-18T10:23:36.000Z</time>
      </trkpt>
      <trkpt lat="45.99074" lon="6.67048">
        <ele>2024.8</ele>
        <time>2022-02-18T10:27:28.000Z</time>
      </trkpt>
      <trkpt lat="45.99071" lon="6.67048">
        <ele>2024.5</ele>
        <time>2022-02-18T10:32:07.000Z</time>
      </trkpt>
      <trkpt lat="45.99067" lon="6.67048">
        <ele>2022.2</ele>
        <time>2022-02-18T10:32:17.000Z</time>
      </trkpt>
      <trkpt lat="45.99069" lon="6.67047">
        <ele>2022.3</ele>
        <time>2022-02-18T10:35:29.000Z</time>
      </trkpt>
      <trkpt lat="45.99072" lon="6.67047">
        <ele>2022.9</ele>
        <time>2022-02-18T10:35:39.000Z</time>
      </trkpt>
      <trkpt lat="45.99072" lon="6.67049">
        <ele>2024.8</ele>
        <time>2022-02-18T10:37:38.739Z</time>
      </trkpt>
      <trkpt lat="45.99083" lon="6.67093">
        <ele>2036.6</ele>
        <time>2022-02-18T10:37:48.000Z</time>
      </trkpt>
      <trkpt lat="45.99085" lon="6.67166">
        <ele>2028.7</ele>
        <time>2022-02-18T10:37:58.000Z</time>
      </trkpt>
      <trkpt lat="45.99085" lon="6.67215">
        <ele>2023.9</ele>
        <time>2022-02-18T10:38:07.389Z</time>
      </trkpt>
      <trkpt lat="45.99107" lon="6.67263">
        <ele>2012.9</ele>
        <time>2022-02-18T10:38:17.000Z</time>
      </trkpt>
      <trkpt lat="45.99126" lon="6.67312">
        <ele>2003.8</ele>
        <time>2022-02-18T10:38:26.575Z</time>
      </trkpt>
      <trkpt lat="45.99134" lon="6.67362">
        <ele>1997.2</ele>
        <time>2022-02-18T10:38:36.000Z</time>
      </trkpt>
      <trkpt lat="45.99146" lon="6.67374">
        <ele>1990.5</ele>
        <time>2022-02-18T10:38:45.510Z</time>
      </trkpt>
      <trkpt lat="45.99138" lon="6.67396">
        <ele>1989.7</ele>
        <time>2022-02-18T10:38:55.000Z</time>
      </trkpt>
      <trkpt lat="45.99141" lon="6.67399">
        <ele>1988.5</ele>
        <time>2022-02-18T10:39:04.349Z</time>
      </trkpt>
      <trkpt lat="45.99135" lon="6.67412">
        <ele>1989.3</ele>
        <time>2022-02-18T10:39:14.000Z</time>
      </trkpt>
      <trkpt lat="45.99133" lon="6.67425">
        <ele>1989.1</ele>
        <time>2022-02-18T10:39:23.512Z</time>
      </trkpt>
      <trkpt lat="45.99139" lon="6.67455">
        <ele>1987.1</ele>
        <time>2022-02-18T10:39:33.452Z</time>
      </trkpt>
      <trkpt lat="45.99167" lon="6.67497">
        <ele>1977.2</ele>
        <time>2022-02-18T10:39:42.593Z</time>
      </trkpt>
      <trkpt lat="45.99179" lon="6.67553">
        <ele>1971.9</ele>
        <time>2022-02-18T10:39:52.000Z</time>
      </trkpt>
      <trkpt lat="45.9917" lon="6.676">
        <ele>1967.2</ele>
        <time>2022-02-18T10:40:02.000Z</time>
      </trkpt>
      <trkpt lat="45.99172" lon="6.6759">
        <ele>1968.6</ele>
        <time>2022-02-18T10:40:12.000Z</time>
      </trkpt>
      <trkpt lat="45.99173" lon="6.6759">
        <ele>1968.2</ele>
        <time>2022-02-18T10:40:24.000Z</time>
      </trkpt>
      <trkpt lat="45.99172" lon="6.67592">
        <ele>1968</ele>
        <time>2022-02-18T10:40:35.000Z</time>
      </trkpt>
      <trkpt lat="45.99154" lon="6.67626">
        <ele>1966.2</ele>
        <time>2022-02-18T10:40:44.530Z</time>
      </trkpt>
      <trkpt lat="45.99172" lon="6.67673">
        <ele>1952.6</ele>
        <time>2022-02-18T10:40:54.000Z</time>
      </trkpt>
      <trkpt lat="45.992" lon="6.67705">
        <ele>1942.4</ele>
        <time>2022-02-18T10:41:03.146Z</time>
      </trkpt>
      <trkpt lat="45.99226" lon="6.67704">
        <ele>1935.7</ele>
        <time>2022-02-18T10:41:12.343Z</time>
      </trkpt>
      <trkpt lat="45.99241" lon="6.67706">
        <ele>1931.9</ele>
        <time>2022-02-18T10:41:21.406Z</time>
      </trkpt>
      <trkpt lat="45.99273" lon="6.67713">
        <ele>1923.5</ele>
        <time>2022-02-18T10:41:31.000Z</time>
      </trkpt>
      <trkpt lat="45.99309" lon="6.67735">
        <ele>1915.1</ele>
        <time>2022-02-18T10:41:40.225Z</time>
      </trkpt>
      <trkpt lat="45.99341" lon="6.67724">
        <ele>1907.5</ele>
        <time>2022-02-18T10:41:50.000Z</time>
      </trkpt>
      <trkpt lat="45.99337" lon="6.67733">
        <ele>1908.2</ele>
        <time>2022-02-18T10:41:59.525Z</time>
      </trkpt>
      <trkpt lat="45.99358" lon="6.67762">
        <ele>1901</ele>
        <time>2022-02-18T10:42:09.000Z</time>
      </trkpt>
      <trkpt lat="45.99383" lon="6.67811">
        <ele>1892.7</ele>
        <time>2022-02-18T10:42:18.284Z</time>
      </trkpt>
      <trkpt lat="45.99395" lon="6.67869">
        <ele>1889.2</ele>
        <time>2022-02-18T10:42:27.425Z</time>
      </trkpt>
      <trkpt lat="45.99422" lon="6.67873">
        <ele>1881.1</ele>
        <time>2022-02-18T10:42:37.000Z</time>
      </trkpt>
      <trkpt lat="45.99435" lon="6.67866">
        <ele>1878.2</ele>
        <time>2022-02-18T10:42:47.000Z</time>
      </trkpt>
      <trkpt lat="45.99444" lon="6.6787">
        <ele>1875.6</ele>
        <time>2022-02-18T10:42:56.506Z</time>
      </trkpt>
      <trkpt lat="45.99469" lon="6.67864">
        <ele>1868.6</ele>
        <time>2022-02-18T10:43:06.000Z</time>
      </trkpt>
      <trkpt lat="45.99496" lon="6.67877">
        <ele>1860.4</ele>
        <time>2022-02-18T10:43:15.385Z</time>
      </trkpt>
      <trkpt lat="45.99521" lon="6.67855">
        <ele>1855.5</ele>
        <time>2022-02-18T10:43:25.000Z</time>
      </trkpt>
      <trkpt lat="45.99534" lon="6.67885">
        <ele>1846.3</ele>
        <time>2022-02-18T10:43:34.362Z</time>
      </trkpt>
      <trkpt lat="45.99538" lon="6.67907">
        <ele>1841.9</ele>
        <time>2022-02-18T10:43:44.000Z</time>
      </trkpt>
      <trkpt lat="45.99567" lon="6.67914">
        <ele>1833.6</ele>
        <time>2022-02-18T10:43:53.305Z</time>
      </trkpt>
      <trkpt lat="45.996" lon="6.67936">
        <ele>1825.6</ele>
        <time>2022-02-18T10:44:02.530Z</time>
      </trkpt>
      <trkpt lat="45.99632" lon="6.67952">
        <ele>1818.2</ele>
        <time>2022-02-18T10:44:12.000Z</time>
      </trkpt>
      <trkpt lat="45.99663" lon="6.68019">
        <ele>1808.5</ele>
        <time>2022-02-18T10:44:22.000Z</time>
      </trkpt>
      <trkpt lat="45.99704" lon="6.68088">
        <ele>1794.6</ele>
        <time>2022-02-18T10:44:32.000Z</time>
      </trkpt>
    </trkseg>
  </trk>
</gpx>